Time;durP1;ratioP1;P1;durP2;ratioP2;P2;SDS_P1;SDS_P2;PMS_P1;PMS_P2;Temp;Humidity;BMP_temperature;BMP_pressure;BME280_temperature;BME280_humidity;BME280_pressure;Samples;Min_cycle;Max_cycle;Signal;HPM_P1;HPM_P2
2024/03/27 00:01:10;;;;;;;6.63;2.08;;;11.20;99.90;;;;;;5031521;28;20386;-81
2024/03/27 00:03:36;;;;;;;4.10;1.73;;;11.20;99.90;;;;;;5023698;28;20033;-80
2024/03/27 00:06:04;;;;;;;5.55;1.63;;;11.10;99.90;;;;;;5030902;28;20497;-81
2024/03/27 00:08:30;;;;;;;4.28;1.80;;;11.10;99.90;;;;;;5029062;28;20041;-82
2024/03/27 00:10:55;;;;;;;3.75;1.65;;;11.10;99.90;;;;;;5025192;28;20029;-81
2024/03/27 00:13:21;;;;;;;3.55;1.50;;;11.10;99.90;;;;;;5028395;28;20074;-83
2024/03/27 00:15:54;;;;;;;3.63;1.33;;;11.00;99.90;;;;;;5028891;28;20029;-83
2024/03/27 00:18:21;;;;;;;5.05;1.40;;;11.00;99.90;;;;;;5026766;28;20037;-83
2024/03/27 00:20:47;;;;;;;5.53;1.95;;;11.00;99.90;;;;;;5032091;28;20064;-83
2024/03/27 00:23:16;;;;;;;4.28;1.58;;;11.00;99.90;;;;;;5029751;28;20492;-83
2024/03/27 00:25:42;;;;;;;4.72;1.60;;;10.90;99.90;;;;;;5030712;28;20022;-83
2024/03/27 00:28:08;;;;;;;3.75;1.52;;;10.90;99.90;;;;;;5028647;28;20037;-83
2024/03/27 00:30:34;;;;;;;6.65;2.03;;;10.90;99.90;;;;;;5031127;28;20386;-82
2024/03/27 00:33:00;;;;;;;3.65;1.63;;;10.90;99.90;;;;;;5022925;28;20035;-82
2024/03/27 00:35:26;;;;;;;3.33;1.48;;;10.80;99.90;;;;;;5028052;28;20548;-85
2024/03/27 00:37:55;;;;;;;8.10;2.47;;;10.80;99.90;;;;;;5031060;28;20033;-85
2024/03/27 00:40:20;;;;;;;5.40;1.90;;;10.80;99.90;;;;;;5032408;28;20021;-85
2024/03/27 00:42:46;;;;;;;5.00;1.80;;;10.80;99.90;;;;;;5027434;28;20038;-85
2024/03/27 00:45:13;;;;;;;4.32;1.83;;;10.80;99.90;;;;;;5015239;28;20032;-85
2024/03/27 00:47:39;;;;;;;3.58;1.60;;;10.70;99.90;;;;;;5019416;28;20030;-85
2024/03/27 00:50:05;;;;;;;4.47;1.95;;;10.70;99.90;;;;;;5021792;28;20050;-81
2024/03/27 00:52:32;;;;;;;4.55;1.92;;;10.60;99.90;;;;;;5029711;28;20033;-81
2024/03/27 00:54:57;;;;;;;3.97;1.50;;;10.50;99.90;;;;;;5016828;28;20022;-81
2024/03/27 00:57:23;;;;;;;6.05;2.40;;;10.50;99.90;;;;;;5017806;28;20091;-81
2024/03/27 00:59:49;;;;;;;10.85;2.88;;;10.50;99.90;;;;;;5023911;28;20024;-80
2024/03/27 01:02:15;;;;;;;6.60;1.90;;;10.40;99.90;;;;;;5027946;28;20029;-80
2024/03/27 01:04:41;;;;;;;3.53;1.67;;;10.40;99.90;;;;;;5029467;28;20104;-80
2024/03/27 01:07:06;;;;;;;5.38;2.17;;;10.30;99.90;;;;;;5029910;28;20533;-80
2024/03/27 01:09:32;;;;;;;7.47;1.75;;;10.30;99.90;;;;;;5028754;28;20072;-80
2024/03/27 01:11:58;;;;;;;5.85;2.00;;;10.20;99.90;;;;;;5026922;28;20017;-80
2024/03/27 01:14:25;;;;;;;8.05;2.20;;;10.10;99.90;;;;;;5024377;28;20040;-80
2024/03/27 01:16:50;;;;;;;4.40;2.50;;;10.00;99.90;;;;;;5030823;28;20018;-80
2024/03/27 01:19:16;;;;;;;3.25;1.88;;;10.00;99.90;;;;;;5024873;28;20026;-81
2024/03/27 01:21:41;;;;;;;5.35;2.40;;;9.90;99.90;;;;;;5030336;28;20037;-80
2024/03/27 01:24:07;;;;;;;5.22;1.90;;;9.90;99.90;;;;;;5023926;28;20030;-80
2024/03/27 01:26:32;;;;;;;4.63;2.83;;;9.80;99.90;;;;;;5021533;28;20042;-82
2024/03/27 01:28:58;;;;;;;5.82;2.72;;;9.70;99.90;;;;;;5019601;28;20026;-82
2024/03/27 01:31:24;;;;;;;6.18;2.47;;;9.70;99.90;;;;;;5028934;28;20038;-82
2024/03/27 01:33:49;;;;;;;5.22;2.45;;;9.70;99.90;;;;;;5023758;28;20092;-85
2024/03/27 01:36:15;;;;;;;6.45;2.70;;;9.60;99.90;;;;;;5020761;28;20022;-85
2024/03/27 01:38:41;;;;;;;6.38;2.40;;;9.60;99.90;;;;;;5024889;28;20052;-85
2024/03/27 01:41:06;;;;;;;6.25;1.95;;;9.60;99.90;;;;;;5024643;28;20014;-81
2024/03/27 01:43:32;;;;;;;5.05;2.80;;;9.60;99.90;;;;;;5026623;28;20036;-84
2024/03/27 01:45:58;;;;;;;6.07;2.42;;;9.70;99.90;;;;;;5027642;28;20029;-85
2024/03/27 01:48:24;;;;;;;5.97;2.00;;;9.70;99.90;;;;;;5018752;28;20030;-84
2024/03/27 01:50:50;;;;;;;8.82;2.88;;;9.70;99.90;;;;;;5030753;28;20049;-85
2024/03/27 01:53:16;;;;;;;9.18;4.80;;;9.70;99.90;;;;;;5023691;28;20440;-83
2024/03/27 01:55:41;;;;;;;9.85;4.10;;;9.70;99.90;;;;;;5032720;28;20493;-85
2024/03/27 01:58:10;;;;;;;4.70;2.13;;;9.70;99.90;;;;;;5030926;28;20029;-85
2024/03/27 02:00:36;;;;;;;7.18;2.53;;;9.70;99.90;;;;;;5025843;28;20034;-85
2024/03/27 02:03:02;;;;;;;4.57;2.60;;;9.70;99.90;;;;;;5021789;28;20033;-85
2024/03/27 02:05:28;;;;;;;5.63;2.67;;;9.70;99.90;;;;;;5028925;28;20508;-84
2024/03/27 02:07:54;;;;;;;5.70;2.80;;;9.70;99.90;;;;;;5029696;28;20026;-85
2024/03/27 02:10:20;;;;;;;4.32;2.53;;;9.60;99.90;;;;;;5032785;28;20116;-84
2024/03/27 02:12:45;;;;;;;6.60;2.55;;;9.60;99.90;;;;;;5031801;28;20512;-85
2024/03/27 02:15:12;;;;;;;5.93;2.50;;;9.60;99.90;;;;;;5032107;28;20061;-85
2024/03/27 02:17:38;;;;;;;6.00;2.53;;;9.50;99.90;;;;;;5033970;28;20440;-86
2024/03/27 02:20:06;;;;;;;4.22;2.58;;;9.50;99.90;;;;;;5036188;28;20025;-86
2024/03/27 02:22:33;;;;;;;6.93;2.53;;;9.50;99.90;;;;;;5035563;28;20030;-86
2024/03/27 02:25:20;;;;;;;6.18;2.55;;;9.50;99.90;;;;;;5028153;28;20022;-85
2024/03/27 02:27:46;;;;;;;7.30;3.13;;;9.50;99.90;;;;;;5023463;28;20083;-84
2024/03/27 02:30:12;;;;;;;7.78;2.65;;;9.50;99.90;;;;;;5034640;28;20485;-84
2024/03/27 02:32:37;;;;;;;5.88;2.47;;;9.50;99.90;;;;;;5031901;28;20092;-86
2024/03/27 02:35:04;;;;;;;7.50;2.70;;;9.50;99.90;;;;;;5036429;28;20029;-86
2024/03/27 02:37:29;;;;;;;6.80;2.70;;;9.50;99.90;;;;;;5035068;28;20026;-86
2024/03/27 02:39:55;;;;;;;4.55;2.53;;;9.50;99.90;;;;;;5020847;28;20064;-85
2024/03/27 02:42:21;;;;;;;8.63;2.45;;;9.50;99.90;;;;;;5024702;28;20079;-82
2024/03/27 02:44:46;;;;;;;7.22;3.22;;;9.50;99.90;;;;;;5029206;28;20060;-83
2024/03/27 02:47:12;;;;;;;7.20;2.70;;;9.40;99.90;;;;;;5032605;28;20021;-82
2024/03/27 02:49:38;;;;;;;5.03;2.90;;;9.40;99.90;;;;;;5034125;28;20052;-86
2024/03/27 02:52:03;;;;;;;6.57;2.83;;;9.40;99.90;;;;;;5029717;28;20041;-80
2024/03/27 02:54:29;;;;;;;6.53;2.67;;;9.30;99.90;;;;;;5030207;28;20038;-80
2024/03/27 02:56:55;;;;;;;7.97;2.35;;;9.40;99.90;;;;;;5031398;28;20025;-81
2024/03/27 02:59:20;;;;;;;8.30;3.47;;;9.40;99.90;;;;;;5032473;28;20025;-79
2024/03/27 03:01:46;;;;;;;5.15;2.78;;;9.40;99.90;;;;;;5022427;28;20029;-80
2024/03/27 03:04:11;;;;;;;5.32;2.10;;;9.40;99.90;;;;;;5027995;28;20057;-84
2024/03/27 03:06:39;;;;;;;6.80;2.53;;;9.40;99.90;;;;;;5032489;28;20028;-81
2024/03/27 03:09:07;;;;;;;8.88;3.55;;;9.40;99.90;;;;;;5031408;28;20029;-82
2024/03/27 03:11:33;;;;;;;7.45;2.88;;;9.50;99.90;;;;;;5031363;28;20031;-81
2024/03/27 03:13:59;;;;;;;6.68;3.10;;;9.50;99.90;;;;;;5023010;28;20042;-81
2024/03/27 03:16:25;;;;;;;7.35;2.97;;;9.50;99.90;;;;;;5038022;28;20030;-81
2024/03/27 03:18:51;;;;;;;7.45;3.20;;;9.50;99.90;;;;;;5032825;28;20025;-81
2024/03/27 03:21:16;;;;;;;8.43;3.00;;;9.60;99.90;;;;;;5034355;28;20083;-81
2024/03/27 03:23:42;;;;;;;7.10;2.97;;;9.50;99.90;;;;;;5027396;28;20041;-82
2024/03/27 03:26:08;;;;;;;4.95;2.53;;;9.60;99.90;;;;;;5032627;28;20029;-81
2024/03/27 03:28:33;;;;;;;4.00;2.33;;;9.60;99.90;;;;;;5032760;28;20027;-80
2024/03/27 03:31:06;;;;;;;7.40;2.78;;;9.60;99.90;;;;;;5032189;28;20410;-81
2024/03/27 03:33:32;;;;;;;10.40;2.58;;;9.60;99.90;;;;;;5024984;28;20069;-80
2024/03/27 03:35:58;;;;;;;7.32;2.83;;;9.60;99.90;;;;;;5024498;28;20052;-81
2024/03/27 03:38:25;;;;;;;6.15;2.78;;;9.60;99.90;;;;;;5032245;28;20130;-81
2024/03/27 03:41:03;;;;;;;6.30;2.83;;;9.70;99.90;;;;;;5023927;28;20385;-81
2024/03/27 03:43:29;;;;;;;5.80;2.58;;;9.70;99.90;;;;;;5030199;28;20068;-81
2024/03/27 03:45:55;;;;;;;8.50;2.63;;;9.70;99.90;;;;;;5022251;28;20488;-80
2024/03/27 03:48:23;;;;;;;6.97;2.83;;;9.70;99.90;;;;;;5029560;28;20040;-81
2024/03/27 03:50:49;;;;;;;7.35;2.55;;;9.80;99.90;;;;;;5030581;28;20046;-81
2024/03/27 03:53:14;;;;;;;7.93;2.40;;;9.80;99.90;;;;;;5027083;28;20393;-80
2024/03/27 03:55:41;;;;;;;4.07;2.20;;;9.80;99.90;;;;;;5033576;28;20025;-81
2024/03/27 03:58:06;;;;;;;9.63;2.75;;;9.90;99.90;;;;;;5027982;28;20057;-82
2024/03/27 04:00:32;;;;;;;6.40;2.72;;;9.90;99.90;;;;;;5029228;28;20075;-82
2024/03/27 04:02:58;;;;;;;5.20;2.33;;;10.00;99.90;;;;;;5029929;28;20029;-83
2024/03/27 04:05:23;;;;;;;7.60;2.03;;;10.00;99.90;;;;;;5013820;28;20033;-83
2024/03/27 04:07:49;;;;;;;6.20;2.33;;;10.00;99.90;;;;;;5023495;28;20097;-82
2024/03/27 04:10:15;;;;;;;5.53;2.28;;;10.00;99.90;;;;;;5029961;28;20041;-84
2024/03/27 04:12:40;;;;;;;5.03;2.20;;;10.00;99.90;;;;;;5022606;28;20061;-82
2024/03/27 04:15:06;;;;;;;6.93;1.83;;;10.00;99.90;;;;;;5016058;28;20492;-81
2024/03/27 04:17:32;;;;;;;7.30;1.88;;;10.00;99.90;;;;;;5029179;28;20056;-83
2024/03/27 04:19:59;;;;;;;8.05;2.20;;;10.00;99.90;;;;;;5032081;28;20105;-86
2024/03/27 04:22:25;;;;;;;5.97;2.55;;;10.00;99.90;;;;;;5028715;28;20121;-87
2024/03/27 04:24:50;;;;;;;6.50;2.35;;;10.00;99.90;;;;;;5024529;28;20060;-89
2024/03/27 04:27:16;;;;;;;9.25;2.58;;;10.00;99.90;;;;;;5030341;28;20029;-86
2024/03/27 04:29:41;;;;;;;5.57;1.92;;;10.00;99.90;;;;;;5027868;28;20032;-85
2024/03/27 04:32:08;;;;;;;6.88;2.38;;;10.00;99.90;;;;;;5033969;28;20031;-85
2024/03/27 04:34:34;;;;;;;6.45;2.35;;;9.90;99.90;;;;;;5026479;28;20075;-83
2024/03/27 04:36:59;;;;;;;9.02;2.33;;;9.80;99.90;;;;;;5027248;28;20104;-87
2024/03/27 04:39:25;;;;;;;6.18;1.98;;;9.80;99.90;;;;;;5025266;28;20033;-87
2024/03/27 04:41:54;;;;;;;4.07;1.58;;;9.80;99.90;;;;;;5033784;28;20029;-86
2024/03/27 04:44:19;;;;;;;5.60;2.20;;;9.70;99.90;;;;;;5034671;28;20476;-87
2024/03/27 04:46:45;;;;;;;2.13;1.15;;;9.80;99.90;;;;;;5034934;28;20069;-87
2024/03/27 04:49:11;;;;;;;3.60;1.27;;;9.80;99.90;;;;;;5032626;28;20108;-87
2024/03/27 04:51:36;;;;;;;4.30;1.40;;;9.80;99.90;;;;;;5033558;28;20124;-88
2024/03/27 04:54:03;;;;;;;4.25;1.48;;;9.80;99.90;;;;;;5029425;28;20039;-84
2024/03/27 04:56:28;;;;;;;5.40;1.75;;;9.80;99.90;;;;;;5031052;28;20021;-86
2024/03/27 04:58:54;;;;;;;3.03;1.15;;;9.80;99.90;;;;;;5029412;28;20040;-86
2024/03/27 05:01:20;;;;;;;3.50;1.55;;;9.80;99.90;;;;;;5020935;28;20030;-83
2024/03/27 05:03:46;;;;;;;3.22;1.35;;;9.80;99.90;;;;;;5023297;28;20025;-83
2024/03/27 05:06:12;;;;;;;5.80;1.63;;;9.90;99.90;;;;;;5023217;28;20026;-83
2024/03/27 05:08:38;;;;;;;6.45;1.85;;;9.90;99.90;;;;;;5014830;28;20535;-84
2024/03/27 05:11:03;;;;;;;6.20;2.38;;;9.90;99.90;;;;;;5025372;28;20562;-84
2024/03/27 05:13:31;;;;;;;6.68;2.00;;;9.90;99.90;;;;;;5018507;28;20060;-83
2024/03/27 05:15:56;;;;;;;3.28;1.63;;;9.90;99.90;;;;;;5021599;28;20485;-84
2024/03/27 05:18:22;;;;;;;4.25;1.75;;;10.00;99.90;;;;;;5025667;28;20038;-84
2024/03/27 05:20:48;;;;;;;2.45;1.10;;;10.00;99.90;;;;;;5020212;28;20030;-83
2024/03/27 05:23:13;;;;;;;3.00;1.50;;;10.00;99.90;;;;;;5023354;28;20032;-82
2024/03/27 05:25:39;;;;;;;3.03;1.50;;;10.10;99.90;;;;;;5018712;28;20041;-82
2024/03/27 05:28:05;;;;;;;3.13;1.35;;;10.10;99.90;;;;;;5022803;28;20089;-83
2024/03/27 05:30:32;;;;;;;2.25;1.40;;;10.10;99.90;;;;;;5021874;28;20516;-83
2024/03/27 05:32:57;;;;;;;2.63;1.98;;;10.20;99.90;;;;;;5014396;28;20103;-83
2024/03/27 05:35:23;;;;;;;3.65;1.10;;;10.20;99.90;;;;;;5031013;28;20018;-83
2024/03/27 05:37:49;;;;;;;2.38;1.45;;;10.20;99.90;;;;;;5032770;28;20484;-83
2024/03/27 05:40:15;;;;;;;2.90;1.35;;;10.30;99.90;;;;;;5021228;28;20022;-83
2024/03/27 05:42:40;;;;;;;2.22;1.50;;;10.30;99.90;;;;;;5033825;28;20558;-83
2024/03/27 05:45:07;;;;;;;2.72;1.88;;;10.30;99.90;;;;;;5032287;28;20033;-82
2024/03/27 05:47:33;;;;;;;4.43;1.70;;;10.30;99.90;;;;;;5028666;28;20029;-83
2024/03/27 05:49:58;;;;;;;2.90;1.92;;;10.30;99.90;;;;;;5032292;28;20105;-81
2024/03/27 05:52:24;;;;;;;3.08;2.22;;;10.30;99.90;;;;;;5027348;28;20132;-83
2024/03/27 05:54:50;;;;;;;2.35;2.08;;;10.30;99.90;;;;;;5018402;28;20061;-85
2024/03/27 05:57:15;;;;;;;3.72;2.40;;;10.30;99.90;;;;;;5017488;28;20022;-86
2024/03/27 05:59:42;;;;;;;4.80;2.38;;;10.30;99.90;;;;;;5017656;28;20109;-83
2024/03/27 06:02:08;;;;;;;3.83;2.55;;;10.30;99.90;;;;;;5023269;28;20425;-88
2024/03/27 06:04:35;;;;;;;5.60;3.60;;;10.30;99.90;;;;;;5037537;28;20049;-86
2024/03/27 06:07:01;;;;;;;5.22;4.07;;;10.30;99.90;;;;;;5019436;28;20493;-84
2024/03/27 06:09:28;;;;;;;4.97;4.05;;;10.30;99.90;;;;;;5028799;28;20037;-85
2024/03/27 06:11:54;;;;;;;6.38;4.68;;;10.30;99.90;;;;;;5023210;28;20040;-87
2024/03/27 06:14:20;;;;;;;6.18;4.05;;;10.30;99.90;;;;;;5032480;28;20030;-86
2024/03/27 06:16:45;;;;;;;7.22;4.97;;;10.30;99.90;;;;;;5022409;28;20029;-88
2024/03/27 06:19:11;;;;;;;5.45;4.35;;;10.30;99.90;;;;;;5034853;28;20536;-85
2024/03/27 06:21:36;;;;;;;6.75;4.65;;;10.30;99.90;;;;;;5015908;28;20053;-86
2024/03/27 06:24:02;;;;;;;5.45;4.25;;;10.20;99.90;;;;;;5019935;28;20025;-86
2024/03/27 06:26:28;;;;;;;7.47;4.72;;;10.20;99.90;;;;;;5026365;28;20508;-86
2024/03/27 06:28:54;;;;;;;7.97;5.63;;;10.10;99.90;;;;;;5015664;28;20109;-88
2024/03/27 06:31:19;;;;;;;6.25;4.63;;;10.00;99.90;;;;;;5020003;28;20100;-89
2024/03/27 06:33:45;;;;;;;8.40;5.78;;;9.90;99.90;;;;;;5027762;28;20062;-86
2024/03/27 06:36:11;;;;;;;8.48;6.63;;;9.90;99.90;;;;;;5021589;28;20026;-88
2024/03/27 06:38:41;;;;;;;11.15;6.70;;;9.90;99.90;;;;;;5024193;28;20040;-87
2024/03/27 06:41:07;;;;;;;10.88;6.95;;;9.80;99.90;;;;;;5019203;28;20049;-87
2024/03/27 06:43:33;;;;;;;9.57;6.18;;;9.60;99.90;;;;;;5034004;28;20061;-86
2024/03/27 06:45:59;;;;;;;9.10;5.38;;;9.50;99.90;;;;;;5033659;28;20048;-87
2024/03/27 06:48:32;;;;;;;8.57;5.53;;;9.30;99.90;;;;;;5028735;28;20115;-89
2024/03/27 06:50:58;;;;;;;7.68;5.03;;;9.20;99.90;;;;;;5027466;28;20049;-88
2024/03/27 06:53:24;;;;;;;6.57;4.53;;;9.10;99.90;;;;;;5019736;28;20414;-87
2024/03/27 06:55:50;;;;;;;6.75;5.03;;;9.00;99.90;;;;;;5020527;28;20029;-88
2024/03/27 06:58:16;;;;;;;8.85;5.43;;;9.00;99.90;;;;;;5023974;28;20026;-87
2024/03/27 07:00:42;;;;;;;8.88;5.55;;;8.90;99.90;;;;;;5025568;28;20488;-88
2024/03/27 07:03:08;;;;;;;9.77;5.80;;;8.80;99.90;;;;;;5035165;28;20034;-88
2024/03/27 07:05:35;;;;;;;14.05;6.50;;;8.80;99.90;;;;;;5031077;28;20017;-87
2024/03/27 07:08:01;;;;;;;8.50;6.07;;;8.80;99.90;;;;;;5014756;28;20056;-86
2024/03/27 07:10:27;;;;;;;10.80;7.07;;;8.70;99.90;;;;;;5032723;28;20033;-88
2024/03/27 07:12:52;;;;;;;12.23;8.43;;;8.80;99.90;;;;;;5029678;28;20049;-87
2024/03/27 07:15:18;;;;;;;17.35;11.40;;;8.80;99.90;;;;;;5014294;28;20101;-88
2024/03/27 07:17:46;;;;;;;14.98;10.05;;;8.80;99.90;;;;;;5016630;28;20026;-88
2024/03/27 07:20:12;;;;;;;17.98;11.93;;;8.80;99.90;;;;;;5030356;28;20029;-90
2024/03/27 07:22:37;;;;;;;17.77;12.25;;;8.80;99.90;;;;;;5029861;28;20125;-90
2024/03/27 07:25:03;;;;;;;16.25;11.77;;;8.80;99.90;;;;;;5034253;28;20029;-89
2024/03/27 07:27:33;;;;;;;18.45;13.07;;;8.80;99.90;;;;;;5026537;28;20458;-88
2024/03/27 07:29:58;;;;;;;18.52;13.48;;;8.80;99.90;;;;;;5032394;28;20033;-89
2024/03/27 07:32:24;;;;;;;17.65;12.90;;;8.80;99.90;;;;;;5018565;28;20087;-89
2024/03/27 07:34:49;;;;;;;18.63;12.38;;;8.70;99.90;;;;;;5031768;28;20135;-89
2024/03/27 07:37:15;;;;;;;18.52;13.63;;;8.70;99.90;;;;;;5016629;28;20026;-90
2024/03/27 07:39:41;;;;;;;21.02;13.43;;;8.70;99.90;;;;;;5032370;28;20021;-88
2024/03/27 07:42:06;;;;;;;20.88;14.05;;;8.70;99.90;;;;;;5033579;28;20100;-88
2024/03/27 07:44:32;;;;;;;19.65;14.18;;;8.70;99.90;;;;;;5029726;28;20025;-87
2024/03/27 07:46:57;;;;;;;21.90;14.30;;;8.70;99.90;;;;;;5033187;28;20087;-88
2024/03/27 07:49:23;;;;;;;25.17;15.45;;;8.80;99.90;;;;;;5030468;28;20033;-88
2024/03/27 07:51:49;;;;;;;21.38;15.52;;;8.80;99.90;;;;;;5034645;28;20034;-90
2024/03/27 07:54:14;;;;;;;22.77;14.85;;;8.80;99.90;;;;;;5032363;28;20379;-89
2024/03/27 07:56:44;;;;;;;27.75;16.23;;;8.80;99.90;;;;;;5031356;28;20037;-89
2024/03/27 07:59:10;;;;;;;20.85;14.27;;;8.80;99.90;;;;;;5033899;28;20104;-89
2024/03/27 08:01:36;;;;;;;21.27;14.75;;;8.90;99.90;;;;;;5033403;28;20021;-88
2024/03/27 08:04:01;;;;;;;18.27;14.38;;;8.90;99.90;;;;;;5032729;28;20056;-89
2024/03/27 08:06:27;;;;;;;19.77;13.95;;;8.90;99.90;;;;;;5027768;28;20052;-88
2024/03/27 08:08:52;;;;;;;18.55;13.38;;;8.90;99.90;;;;;;5021596;28;20101;-89
2024/03/27 08:11:18;;;;;;;18.13;13.77;;;9.00;99.90;;;;;;5031105;28;20032;-88
2024/03/27 08:13:43;;;;;;;19.75;13.50;;;9.10;99.90;;;;;;5030513;28;20045;-89
2024/03/27 08:16:09;;;;;;;20.25;14.35;;;9.20;99.90;;;;;;5032974;28;20470;-88
2024/03/27 08:18:46;;;;;;;19.73;13.77;;;9.40;99.90;;;;;;5027829;28;20100;-88
2024/03/27 08:21:12;;;;;;;19.80;13.18;;;9.50;99.90;;;;;;5013521;28;20145;-88
2024/03/27 08:23:38;;;;;;;18.98;12.88;;;9.50;99.90;;;;;;5013884;28;20038;-89
2024/03/27 08:26:04;;;;;;;17.30;12.70;;;9.60;99.90;;;;;;5015981;28;20028;-88
2024/03/27 08:28:30;;;;;;;15.00;12.15;;;9.70;99.90;;;;;;5032238;28;20477;-90
2024/03/27 08:30:55;;;;;;;16.13;12.05;;;9.70;99.90;;;;;;5025033;28;20105;-87
2024/03/27 08:33:22;;;;;;;13.73;11.13;;;9.80;99.90;;;;;;5013389;28;20041;-88
2024/03/27 08:35:53;;;;;;;17.08;11.85;;;9.80;99.90;;;;;;5021423;28;20432;-88
2024/03/27 08:38:18;;;;;;;14.13;10.93;;;9.80;99.90;;;;;;5025698;28;20029;-89
2024/03/27 08:40:53;;;;;;;17.83;10.98;;;9.80;99.90;;;;;;5025739;28;20060;-89
2024/03/27 08:43:19;;;;;;;13.73;11.45;;;9.90;99.90;;;;;;5027821;28;20045;-88
2024/03/27 08:45:45;;;;;;;18.38;11.35;;;9.80;99.90;;;;;;5022563;28;20083;-88
2024/03/27 08:48:11;;;;;;;15.30;11.07;;;9.80;99.90;;;;;;5022091;28;20378;-89
2024/03/27 08:50:41;;;;;;;13.82;10.52;;;9.90;99.90;;;;;;5029515;28;20045;-89
2024/03/27 08:53:06;;;;;;;14.43;10.15;;;10.00;99.90;;;;;;5028620;28;20044;-88
2024/03/27 08:55:38;;;;;;;14.90;10.73;;;10.00;99.90;;;;;;5028446;28;20382;-88
2024/03/27 08:58:04;;;;;;;12.97;9.63;;;10.10;99.90;;;;;;5030380;28;20049;-88
2024/03/27 09:00:30;;;;;;;13.68;9.80;;;10.20;99.90;;;;;;5031041;28;20272;-89
2024/03/27 09:02:56;;;;;;;13.93;10.18;;;10.20;99.90;;;;;;5025615;28;20033;-89
2024/03/27 09:05:22;;;;;;;13.68;9.20;;;10.30;99.90;;;;;;5018000;28;20150;-87
2024/03/27 09:07:48;;;;;;;17.33;9.70;;;10.30;99.90;;;;;;5026995;28;20197;-87
2024/03/27 09:10:14;;;;;;;13.25;9.23;;;10.30;99.90;;;;;;5024404;28;20498;-88
2024/03/27 09:12:40;;;;;;;12.25;8.18;;;10.30;99.90;;;;;;5029663;28;20076;-88
2024/03/27 09:15:06;;;;;;;10.13;6.45;;;10.30;99.90;;;;;;5031547;28;20029;-88
2024/03/27 09:17:32;;;;;;;6.93;5.30;;;10.30;99.90;;;;;;5045899;28;20036;-88
2024/03/27 09:19:57;;;;;;;9.50;4.97;;;10.20;99.90;;;;;;5033062;28;20117;-87
2024/03/27 09:22:23;;;;;;;6.13;4.43;;;10.20;99.90;;;;;;5021812;28;20041;-88
2024/03/27 09:24:53;;;;;;;8.48;5.18;;;10.10;99.90;;;;;;5029520;28;20123;-89
2024/03/27 09:27:19;;;;;;;9.02;5.20;;;10.10;99.90;;;;;;5030119;28;20029;-88
2024/03/27 09:29:44;;;;;;;7.78;4.78;;;10.00;99.90;;;;;;5029618;28;20084;-88
2024/03/27 09:32:10;;;;;;;7.30;4.28;;;10.00;99.90;;;;;;5027704;28;20751;-88
2024/03/27 09:34:35;;;;;;;8.55;4.55;;;9.90;99.90;;;;;;5026488;28;20116;-88
2024/03/27 09:37:02;;;;;;;8.80;4.40;;;10.00;99.90;;;;;;5014572;28;20026;-87
2024/03/27 09:39:28;;;;;;;9.52;4.65;;;10.00;99.90;;;;;;5014672;28;20027;-89
2024/03/27 09:41:53;;;;;;;8.63;4.53;;;10.00;99.90;;;;;;5025821;28;20401;-89
2024/03/27 09:44:21;;;;;;;9.68;4.30;;;10.00;99.90;;;;;;5014867;28;20048;-87
2024/03/27 09:46:47;;;;;;;6.93;4.32;;;10.00;99.90;;;;;;5019096;28;20030;-88
2024/03/27 09:49:14;;;;;;;7.85;4.35;;;10.10;99.90;;;;;;5030982;28;20022;-88
2024/03/27 09:51:40;;;;;;;6.20;4.45;;;10.10;99.90;;;;;;5015114;28;20049;-88
2024/03/27 09:54:06;;;;;;;8.48;4.50;;;10.20;99.90;;;;;;5013650;28;21968;-88
2024/03/27 09:56:36;;;;;;;6.45;3.67;;;10.20;99.90;;;;;;5024663;28;20080;-89
2024/03/27 09:59:02;;;;;;;8.45;4.35;;;10.30;99.90;;;;;;5019869;28;20034;-89
2024/03/27 10:01:28;;;;;;;8.65;4.22;;;10.30;99.90;;;;;;5015679;28;20017;-89
2024/03/27 10:03:56;;;;;;;8.40;3.80;;;10.20;99.90;;;;;;5029350;28;20444;-89
2024/03/27 10:06:24;;;;;;;10.52;4.68;;;10.20;99.90;;;;;;5025843;28;20026;-89
2024/03/27 10:08:49;;;;;;;7.75;4.18;;;10.20;99.90;;;;;;5020642;28;20060;-88
2024/03/27 10:11:16;;;;;;;6.55;3.70;;;10.30;99.90;;;;;;5023378;28;20038;-89
2024/03/27 10:13:42;;;;;;;4.65;3.05;;;10.30;99.90;;;;;;5016474;28;20124;-89
2024/03/27 10:16:11;;;;;;;8.55;4.13;;;10.20;99.90;;;;;;5024365;28;20021;-89
2024/03/27 10:18:40;;;;;;;8.00;4.20;;;10.20;99.90;;;;;;5015667;28;20446;-89
2024/03/27 10:21:06;;;;;;;6.93;4.00;;;10.20;99.90;;;;;;5015162;28;20140;-88
2024/03/27 10:23:32;;;;;;;7.05;3.63;;;10.20;99.90;;;;;;5018492;28;20025;-89
2024/03/27 10:26:07;;;;;;;9.80;4.22;;;10.20;99.90;;;;;;5022452;28;20079;-88
2024/03/27 10:28:35;;;;;;;9.27;4.50;;;10.20;99.90;;;;;;5023485;28;20553;-88
2024/03/27 10:31:04;;;;;;;9.55;4.30;;;10.10;99.90;;;;;;5026167;28;20032;-87
2024/03/27 10:33:30;;;;;;;8.63;4.10;;;10.20;99.90;;;;;;5030359;28;20163;-88
2024/03/27 10:35:58;;;;;;;11.02;4.30;;;10.20;99.90;;;;;;5030032;28;20116;-88
2024/03/27 10:38:27;;;;;;;7.43;4.35;;;10.20;99.90;;;;;;5020857;28;20033;-88
2024/03/27 10:40:56;;;;;;;12.70;5.60;;;10.20;99.90;;;;;;5030176;28;20059;-88
2024/03/27 10:43:38;;;;;;;7.82;4.43;;;10.30;99.90;;;;;;5024236;28;20505;-89
2024/03/27 10:46:05;;;;;;;11.68;4.63;;;10.40;99.90;;;;;;5026817;28;20025;-89
2024/03/27 10:48:33;;;;;;;10.15;4.45;;;10.40;99.90;;;;;;5030999;28;20026;-88
2024/03/27 10:51:00;;;;;;;7.05;3.55;;;10.40;99.90;;;;;;5026586;28;20053;-89
2024/03/27 10:53:26;;;;;;;7.32;4.55;;;10.50;99.90;;;;;;5032084;28;20159;-87
2024/03/27 10:55:53;;;;;;;8.27;4.45;;;10.60;99.90;;;;;;5029075;28;20097;-86
2024/03/27 10:58:19;;;;;;;8.13;3.75;;;10.60;99.90;;;;;;5031892;28;20041;-88
2024/03/27 11:00:46;;;;;;;5.53;3.47;;;10.60;99.90;;;;;;5030512;28;20056;-86
2024/03/27 11:03:14;;;;;;;7.15;3.95;;;10.50;99.90;;;;;;5023178;28;20030;-88
2024/03/27 11:05:46;;;;;;;8.48;5.13;;;10.60;99.90;;;;;;5024302;28;20351;-87
2024/03/27 11:08:11;;;;;;;8.77;4.25;;;10.60;99.90;;;;;;5032223;28;20033;-87
2024/03/27 11:10:37;;;;;;;7.22;4.05;;;10.60;99.90;;;;;;5026658;28;20064;-88
2024/03/27 11:13:04;;;;;;;8.98;4.45;;;10.70;99.90;;;;;;5033966;28;20037;-88
2024/03/27 11:15:32;;;;;;;7.78;4.53;;;10.80;99.90;;;;;;5031063;28;20033;-89
2024/03/27 11:17:58;;;;;;;6.25;3.55;;;10.80;99.90;;;;;;5035131;28;20060;-89
2024/03/27 11:20:26;;;;;;;7.63;4.05;;;10.80;99.90;;;;;;5029827;28;20057;-88
2024/03/27 11:22:53;;;;;;;7.85;4.38;;;10.80;99.90;;;;;;5031209;28;20025;-89
2024/03/27 11:25:26;;;;;;;9.38;4.47;;;10.80;99.90;;;;;;5033973;28;20452;-87
2024/03/27 11:27:52;;;;;;;;;;;10.80;99.90;;;;;;5032619;28;20037;-88
2024/03/27 11:30:21;;;;;;;8.45;4.50;;;10.70;99.90;;;;;;5032672;28;19913;-89
2024/03/27 11:32:49;;;;;;;5.63;3.60;;;10.70;99.90;;;;;;5033905;28;20085;-88
2024/03/27 11:35:18;;;;;;;6.95;3.92;;;10.70;99.90;;;;;;5027254;28;20478;-87
2024/03/27 11:37:44;;;;;;;7.05;4.15;;;10.70;99.90;;;;;;5030039;28;20171;-87
2024/03/27 11:40:10;;;;;;;8.38;5.03;;;10.70;99.90;;;;;;5022477;28;20606;-87
2024/03/27 11:42:36;;;;;;;7.38;4.65;;;10.70;99.90;;;;;;5034078;28;20025;-86
2024/03/27 11:45:06;;;;;;;7.75;4.20;;;10.80;99.90;;;;;;5023873;28;20033;-87
2024/03/27 11:47:33;;;;;;;7.53;4.97;;;10.80;99.90;;;;;;5019303;28;20144;-88
2024/03/27 11:49:59;;;;;;;7.28;4.43;;;10.80;99.90;;;;;;5033302;28;20037;-88
2024/03/27 11:52:25;;;;;;;6.35;3.80;;;10.80;99.90;;;;;;5034751;28;20048;-88
2024/03/27 11:54:54;;;;;;;7.25;3.72;;;10.80;99.90;;;;;;5032790;28;20029;-87
2024/03/27 11:57:21;;;;;;;6.93;3.85;;;10.80;99.90;;;;;;5047756;28;20026;-88
2024/03/27 11:59:47;;;;;;;6.85;4.03;;;10.70;99.90;;;;;;5034619;28;20026;-89
2024/03/27 12:02:14;;;;;;;8.80;4.85;;;10.60;99.90;;;;;;5033720;28;20104;-87
2024/03/27 12:04:39;;;;;;;6.45;3.75;;;10.60;99.90;;;;;;5031958;28;20497;-87
2024/03/27 12:07:05;;;;;;;8.15;5.07;;;10.70;99.90;;;;;;5034293;28;20037;-87
2024/03/27 12:09:38;;;;;;;8.20;4.63;;;10.80;99.90;;;;;;5023308;28;21395;-86
2024/03/27 12:12:04;;;;;;;7.32;4.95;;;10.90;99.90;;;;;;5033521;28;20536;-88
2024/03/27 12:14:31;;;;;;;6.65;4.90;;;11.00;99.90;;;;;;5033530;28;20038;-87
2024/03/27 12:16:57;;;;;;;8.57;5.50;;;11.10;99.90;;;;;;5031983;28;20520;-87
2024/03/27 12:19:23;;;;;;;9.00;5.82;;;11.20;99.90;;;;;;5033759;28;20029;-87
2024/03/27 12:21:49;;;;;;;7.75;5.43;;;11.30;99.90;;;;;;5033336;28;20022;-88
2024/03/27 12:24:16;;;;;;;10.65;4.97;;;11.40;99.90;;;;;;5024965;28;20475;-89
2024/03/27 12:26:45;;;;;;;8.35;5.95;;;11.40;99.90;;;;;;5026105;28;20065;-88
2024/03/27 12:29:10;;;;;;;8.52;5.93;;;11.40;99.90;;;;;;5018573;28;20030;-88
2024/03/27 12:31:36;;;;;;;8.48;6.03;;;11.40;99.90;;;;;;5028500;28;20024;-88
2024/03/27 12:34:02;;;;;;;8.85;5.78;;;11.50;99.90;;;;;;5027619;28;20045;-88
2024/03/27 12:36:28;;;;;;;9.23;6.50;;;11.60;99.90;;;;;;5021862;28;20084;-88
2024/03/27 12:38:54;;;;;;;9.55;6.00;;;11.70;99.90;;;;;;5029117;28;20037;-88
2024/03/27 12:41:20;;;;;;;8.40;6.03;;;11.80;99.90;;;;;;5023933;28;20128;-87
2024/03/27 12:43:45;;;;;;;6.85;4.70;;;11.90;99.90;;;;;;5031760;28;20033;-88